• Join FlightAware (Why Join?)
  • Login
  • US Flag 
11:59PM EDT


 

Airport Tracker/Info


-or-


 

Live Flight TrackerFlight Track Log ✈ ASQ4233 ✈ 11-May-2013 ✈ KEWR - KBTV

Flight Track Log - Related Links

Times and Time Zones

All times are in EDT time to prevent confusion due to time zone crossing. See the ASQ4233 flight status page for this flight to view local times or setup timezone preferences in your user account.

Time Position Orientation Groundspeed Altitude Reporting Facility
EDT Latitude Longitude Course Direction KTS MPH feet Rate Location/Type
08:44AM 40.6500 -74.2000 48° Northeast 178 205 3,000  Level New York TRACON
08:46AM 40.7492 -74.1661 15° North 275 316 7,100 2,040 Climbing Boston Center
08:47AM 40.9877 -73.8289 37° Northeast  Level FlightAware Approximate
08:47AM 40.7694 -74.0569 76° East 272 313 8,800  Level Boston Center
08:48AM 41.0669 -73.7415 40° Northeast  Level FlightAware Approximate
08:48AM 40.8086 -73.9428 66° East 299 344 10,300  Level Boston Center
08:49AM 41.1475 -73.6572 27° Northeast  Level FlightAware Approximate
08:49AM 40.8889 -73.8622 37° Northeast 326 375 11,900  Level Boston Center
08:50AM 41.2161 -73.5841 48° Northeast  Level FlightAware Approximate
08:50AM 40.9772 -73.7817 35° Northeast 354 407 12,100  Level Boston Center
08:51AM 41.0617 -73.7036 35° Northeast 397 457 13,400 1,500 Climbing Boston Center
08:52AM 41.1606 -73.6092 36° Northeast 408 470 15,200 1,980 Climbing Boston Center
08:53AM 41.2406 -73.5386 34° Northeast 397 457 17,400 2,100 Climbing Boston Center
08:54AM 41.3350 -73.4492 35° Northeast 384 442 19,500 1,680 Climbing Boston Center
08:55AM 41.4294 -73.3814 28° Northeast 379 436 20,800 1,080 Climbing Boston Center
08:56AM 41.5128 -73.3772 North 363 418 21,700 1,020 Climbing Boston Center
08:57AM 41.6442 -73.3681 North 370 426 22,900 1,140 Climbing Boston Center
08:58AM 41.7611 -73.3586 North 396 456 24,000 1,020 Climbing Boston Center
08:59AM 41.8800 -73.3492 North 410 472 25,000 480 Climbing Boston Center
09:00AM 42.0008 -73.3425 North 426 490 25,000  Level Boston Center
09:01AM 42.1322 -73.3331 North 439 505 25,000  Level Boston Center
09:02AM 42.2656 -73.3239 North 463 533 25,000  Level Boston Center
09:03AM 42.3844 -73.3086 North 476 548 25,000  Level Boston Center
09:04AM 42.5200 -73.2992 North 482 555 25,000  Level Boston Center
09:05AM 42.6681 -73.2956 North 477 549 25,000  Level Boston Center
09:06AM 42.8036 -73.2833 North 477 549 25,000 -180 Level Boston Center
09:07AM 42.9225 -73.2764 North 477 549 24,700 -540 Descending Boston Center
09:08AM 43.0497 -73.2669 North 467 537 24,000 -720 Descending Boston Center
09:09AM 43.1706 -73.2542 North 454 522 23,300 -960 Descending Boston Center
09:10AM 43.2917 -73.2472 North 442 509 22,100 -1,560 Descending Boston Center
09:11AM 43.4208 -73.2375 North 437 503 20,200 -1,800 Descending Boston Center
09:12AM 43.5397 -73.2247 North 425 489 18,500 -1,800 Descending Boston Center
09:13AM 43.6564 -73.2178 North 420 483 16,600 -1,800 Descending Boston Center
09:14AM 43.7692 -73.2106 North 415 478 14,900 -1,740 Descending Boston Center
09:15AM 43.8794 -73.2006 North 403 464 13,200 -1,740 Descending Boston Center
09:16AM 43.9672 -73.1928 North 374 430 11,500 -1,320 Descending Boston Center
09:17AM 44.0547 -73.2056 354° North 324 373 10,600 -900 Descending Boston Center
09:18AM 44.1317 -73.2211 352° North 289 333 9,700 -900 Descending Boston Center
09:19AM 44.2086 -73.2394 350° North 276 318 8,800 -1,200 Descending Boston Center
09:20AM 44.2833 -73.2550 352° North 276 318 7,300 -1,500 Descending Boston Center
09:21AM 44.3500 -73.2850 342° North 261 300 5,800 -1,560 Descending Boston Center
09:22AM 44.4122 -73.3119 343° North 239 275 4,200 -1,440 Descending Boston Center
09:23AM 44.4725 -73.3389 342° North 226 260 3,000 -600 Descending Boston Center
09:24AM 44.5242 -73.3658 340° North 216 249 3,100 -360 Climbing Boston Center
09:25AM 44.5664 -73.3200 38° Northeast 184 212 2,300 -540 Descending Boston Center
09:26AM 44.5356 -73.2583 125° Southeast 151 174 2,100 -240 Descending Boston Center